METAR Data
IDs: Format: Raw Decoded Include TAF

Data at: 0833 UTC 20 Sep 2018

PADM 200802Z AUTO 21008KT 8SM -RA OVC007 09/09 A3017 RMK AO2 SLP225 P0003 T00940089 400940094
PADM 200726Z AUTO 21009KT 10SM -RA OVC007 09/09 A3018 RMK AO2 CIG 004V010 P0002
PADM 200702Z AUTO 21009KT 4SM -RA BR OVC005 09/09 A3018 RMK AO2 CIG 004V009 P0002
PADM 200658Z AUTO 21008KT 2 1/2SM -RA BR OVC005 09/09 A3018 RMK AO2 CIG 004V009 P0002
PADM 200602Z AUTO 20009KT 8SM -RA OVC005 09/09 A3019 RMK AO2 CIG 004V010 SLP232 P0006 60010 T00940089 10100 20094 58006
PADM 200509Z AUTO 21007KT 5SM -RA BR BKN005 OVC016 09/09 A3019 RMK AO2 CIG 004V008 P0005
PADM 200502Z AUTO 21006KT 2 1/2SM -RA BR BKN005 OVC016 09/09 A3020 RMK AO2 CIG 004V009 P0004
PADM 200451Z AUTO 24011KT 2 1/2SM RA BR BKN007 BKN010 OVC017 09/09 A3020 RMK AO2 VIS 1 3/4V3 CIG 004V009 P0004
PADM 200416Z AUTO 21004KT 5SM -RA BR BKN009 BKN012 OVC030 09/09 A3020 RMK AO2 CIG 006V010 P0001
PADM 200402Z AUTO 21005KT 6SM -RA BR SCT009 BKN019 OVC060 10/09 A3020 RMK AO2 SLP237 P0002 T01000089
PADM 200355Z AUTO 21006KT 6SM -RA BR SCT009 BKN027 OVC060 10/09 A3021 RMK AO2 P0002
PADM 200342Z AUTO 21005KT 6SM -RA BR FEW009 BKN046 OVC060 10/09 A3021 RMK AO2 P0002
PADM 200302Z AUTO 23007KT 8SM -RA FEW009 BKN021 OVC035 10/09 A3021 RMK AO2 P0001
PADM 200228Z AUTO 24008KT 9SM -RA OVC009 10/09 A3022 RMK AO2 RAB0115E0142B0158 CIG 007V015 SLP241 P0002 T01000094
PADM 200219Z AUTO 22009KT 10SM -RA BKN009 BKN014 OVC031 10/09 A3021 RMK AO2 RAB0115E0142B0158 CIG 006V013 P0002
PADM 200202Z AUTO 21008KT 10SM -RA SCT009 BKN014 OVC027 10/09 A3022 RMK AO2 RAB0115E0142B0158 P0002
PADM 200139Z AUTO 23009KT 10SM -RA FEW007 BKN025 OVC035 10/09 A3022 RMK AO2 RAB15 P0002
PADM 200131Z AUTO 22010KT 4SM -RA BR FEW007 SCT014 OVC031 10/09 A3022 RMK AO2 RAB15 P0002
PADM 200126Z AUTO 23011G17KT 2 1/2SM -RA BR FEW009 BKN021 OVC031 11/09 A3022 RMK AO2 RAB15 P0001
PADM 200123Z AUTO 23010G17KT 2 1/2SM -RA BR FEW009 BKN013 OVC031 11/09 A3022 RMK AO2 RAB15 P0001
PADM 200102Z AUTO 21007KT 10SM BKN018 OVC022 11/08 A3022 RMK AO2 SLP243 T01110083
PADM 200002Z AUTO 21007KT 10SM SCT016 BKN023 OVC035 11/09 A3023 RMK AO2
PADM 192353Z AUTO 21007KT 10SM FEW014 SCT022 OVC033 11/09 A3024 RMK AO2
PADM 192328Z AUTO 24007KT 7SM SCT008 BKN015 OVC020 10/09 A3024 RMK AO2
PADM 192325Z AUTO 25008KT 5SM BR BKN008 BKN013 OVC018 10/09 A3024 RMK AO2 RAE2205B2248E12 CIG 004V010 SLP251 P0000 T01000089
PADM 192318Z AUTO 26008KT 5SM BR BKN008 OVC013 10/09 A3024 RMK AO2 RAE2205B2248E12 CIG 004V010 P0000
PADM 192309Z AUTO 24009KT 3SM -RA BR SCT006 OVC013 10/09 A3024 RMK AO2 RAE2205B2248 P0000
PADM 192302Z AUTO 24010KT 1 3/4SM -RA BR SCT008 OVC015 10/09 A3024 RMK AO2 RAE2205B2248 P0000
PADM 192257Z AUTO 24012G17KT 2SM -RA BR BKN008 OVC013 10/09 A3024 RMK AO2 RAE05B48 CIG 006V011 P0000
PADM 192255Z AUTO 24011G17KT 3SM -RA BR BKN010 OVC016 10/09 A3024 RMK AO2 RAE05B48 CIG 007V012 P0000
PADM 192247Z AUTO 23011KT 9SM OVC015 11/08 A3024 RMK AO2 RAE05 P0000
PADM 192236Z AUTO 23009KT 10SM BKN013 OVC019 11/08 A3025 RMK AO2 RAE05 P0000
PADM 192211Z AUTO 22010KT 10SM BKN015 BKN021 OVC027 11/08 A3025 RMK AO2 RAE05 P0000
PADM 192202Z AUTO 22009KT 10SM -RA BKN013 OVC020 11/08 A3025 RMK AO2 RAB2154 SLP252 P0000 T01060083
PADM 192131Z AUTO 21009KT 10SM BKN013 OVC055 11/08 A3025 RMK AO2
PADM 192102Z AUTO 21009KT 10SM FEW018 OVC055 10/08 A3026 RMK AO2 SLP256 60000 T01000078 56002
PADM 192002Z AUTO 21008KT 10SM FEW013 OVC045 09/08 A3027 RMK AO2 SLP259 T00940078
PADM 191902Z AUTO 19010KT 10SM FEW007 OVC039 09/08 A3027 RMK AO2 SLP259 T00890078
PADM 191850Z AUTO 20009KT 10SM SCT005 BKN039 OVC050 09/08 A3027 RMK AO2
PADM 191826Z AUTO 20007KT 10SM BKN005 OVC040 08/08 A3027 RMK AO2 CIG 003V008
PADM 191802Z AUTO 20009KT 10SM FEW005 OVC036 08/08 A3028 RMK AO2
PADM 191721Z AUTO 20008KT 10SM SCT024 OVC032 08/08 A3028 RMK AO2
PADM 191702Z AUTO 20007KT 10SM FEW006 OVC024 08/08 A3028 RMK AO2 RAE1607 SLP263 P0000 T00830078
PADM 191654Z AUTO 21006KT 10SM SCT006 OVC024 08/08 A3028 RMK AO2 RAE07 P0000
PADM 191602Z AUTO 22011KT 8SM -RA OVC006 08/08 A3029 RMK AO2 RAB1538 CIG 005V010 SLP266 P0000 T00830078
PADM 191502Z AUTO 21008KT 10SM OVC006 08/08 A3029 RMK AO2 SLP266 60000 T00830078 58006
PADM 191427Z AUTO 21009KT 8SM BKN008 BKN014 OVC044 08/07 A3029 RMK AO2 CIG 006V011
PADM 191402Z AUTO 21008KT 10SM BKN018 BKN026 OVC046 09/07 A3029 RMK AO2 SLP267 T00890072
PADM 191318Z AUTO 19008KT 10SM SCT009 BKN021 OVC035 08/08 A3030 RMK AO2
PADM 191302Z AUTO 19007KT 10SM FEW016 BKN021 OVC026 08/08 A3030 RMK AO2 SLP271 T00830078
PADM 191244Z AUTO 19007KT 10SM SCT017 BKN022 OVC035 08/08 A3030 RMK AO2
PADM 191202Z AUTO 19006KT 10SM FEW020 BKN050 OVC060 08/08 A3030 RMK AO2 SLP271 60000 T00830078 10089 20083 57003
PADM 191150Z AUTO 19005KT 10SM SCT020 BKN032 OVC060 08/08 A3031 RMK AO2
PADM 191130Z AUTO 21007KT 10SM FEW007 BKN027 OVC050 08/08 A3032 RMK AO2
PADM 191113Z AUTO 20006KT 10SM FEW016 BKN038 OVC060 09/08 A3031 RMK AO2
PADM 191102Z AUTO 20007KT 10SM SCT016 BKN026 OVC046 09/08 A3031 RMK AO2 RAB1012E1022 SLP273 P0000 T00890078
PADM 191053Z AUTO 20006KT 10SM BKN016 OVC035 09/08 A3031 RMK AO2 RAB12E22 P0000
PADM 191029Z AUTO 20006KT 10SM FEW016 SCT030 OVC035 08/08 A3031 RMK AO2 RAB12E22 P0000
PADM 191002Z AUTO 21004KT 10SM FEW014 BKN028 OVC035 08/08 A3031 RMK AO2 SLP274 T00830078
PADM 190955Z AUTO 21004KT 10SM FEW014 BKN026 OVC034 08/08 A3031 RMK AO2
PADM 190918Z AUTO 20004KT 10SM FEW028 OVC036 08/08 A3032 RMK AO2
PADM 190902Z AUTO 20006KT 10SM BKN028 OVC034 09/08 A3032 RMK AO2 RAB0807080608070832E0804 SLP275 P0000 60000 T00890078 400890083 57001
PADM 190832Z AUTO 21005KT 10SM FEW007 OVC024 09/08 A3032 RMK AO2 RAB07060732E04 P0000 400890089
PADM 190802Z AUTO 21007KT 10SM -RA BKN007 BKN012 OVC029 09/08 A3032 RMK AO2 RAB07060732 P0000 400890089
PADM 190758Z AUTO 21005KT 8SM -RA SCT007 BKN012 OVC029 09/08 A3032 RMK AO2 RAB0632 P0000 401170022
PADM 190737Z AUTO 20005KT 4SM -RA BR SCT007 BKN021 OVC028 09/08 A3032 RMK AO2 RAB0632 P0000
PADM 190721Z AUTO 23007KT 3SM -RA BR BKN007 BKN015 OVC021 09/08 A3032 RMK AO2 RAB0632 CIG 006V010 P0000
PADM 190702Z AUTO 20004KT 10SM -RA SCT018 BKN024 OVC041 09/08 A3031 RMK AO2 RAB0632 P0000
PADM 190657Z AUTO 21004KT 10SM -RA FEW020 BKN035 OVC041 09/08 A3032 RMK AO2 RAB32 P0000
PADM 190602Z AUTO 20005KT 10SM OVC029 09/08 A3032 RMK AO2 RAB0504E0519 SLP276 P0000 60000 T00940078 10117 20094 53004
PADM 190600Z AUTO 20006KT 10SM OVC029 09/08 A3032 RMK AO2 RAB0504E0519 P0000
PADM 190547Z AUTO 21004KT 10SM SCT025 OVC033 09/08 A3032 RMK AO2 RAB04E19 P0000
PADM 190502Z AUTO 23007KT 7SM SCT014 BKN026 OVC033 09/08 A3032 RMK AO2 SLP276 T00940078
PADM 190457Z AUTO 25008KT 9SM SCT014 BKN026 OVC038 09/08 A3032 RMK AO2
PADM 190402Z AUTO 21004KT 10SM FEW034 OVC050 11/07 A3030 RMK AO2 SLP271 T01060072
PADM 190302Z AUTO 23009KT 10SM FEW027 OVC046 11/07 A3031 RMK AO2 SLP272 T01110067 56004
PADM 190202Z AUTO 24005KT 10SM FEW027 OVC050 11/06 A3031 RMK AO2 SLP274 T01110061
PADM 190102Z AUTO 25007KT 10SM OVC048 12/06 A3031 RMK AO2 SLP274 T01170056
PADM 190002Z AUTO 26007KT 10SM OVC050 12/05 A3032 RMK AO2 SLP276 T01170050 10117 20056 50001
PADM 182302Z AUTO 25004KT 10SM FEW047 09/06 A3032 RMK AO2 SLP278 T00940061
PADM 182202Z AUTO VRB03KT 8SM SCT013 BKN036 09/07 A3033 RMK AO2 SLP280 T00940067
PADM 182135Z AUTO 23004KT 10SM FEW006 SCT036 09/07 A3033 RMK AO2
PADM 182102Z AUTO 21006KT 10SM BKN006 08/07 A3033 RMK AO2 SLP279 T00830072 51005
PADM 182041Z AUTO 23003KT 10SM BKN006 08/07 A3032 RMK AO2